createdAt,value
2023-02-12T00:01:33.774Z,106.70
2023-02-12T00:04:04.137Z,106.20
2023-02-12T00:06:32.247Z,104.20
2023-02-12T00:09:00.386Z,98.40
2023-02-12T00:11:29.736Z,95.80
2023-02-12T00:13:58.574Z,91.30
2023-02-12T00:16:29.101Z,97.20
2023-02-12T00:18:59.025Z,91.00
2023-02-12T00:21:27.704Z,91.20
2023-02-12T00:23:56.283Z,99.80
2023-02-12T00:26:25.129Z,96.40
2023-02-12T00:28:54.624Z,86.40
2023-02-12T00:31:26.748Z,90.00
2023-02-12T00:34:00.667Z,84.50
2023-02-12T00:36:31.439Z,80.10
2023-02-12T00:39:01.550Z,78.80
2023-02-12T00:41:30.088Z,81.80
2023-02-12T00:43:58.322Z,73.60
2023-02-12T00:46:26.674Z,78.70
2023-02-12T00:48:56.794Z,78.50
2023-02-12T00:51:24.776Z,81.10
2023-02-12T00:53:55.350Z,81.70
2023-02-12T00:56:23.446Z,75.90
2023-02-12T00:58:52.574Z,78.90
2023-02-12T01:01:20.706Z,79.00
2023-02-12T01:03:48.840Z,74.20
2023-02-12T01:06:16.807Z,75.80
2023-02-12T01:08:47.369Z,75.60
2023-02-12T01:11:15.575Z,75.50
2023-02-12T01:13:43.707Z,76.30
2023-02-12T01:16:18.043Z,71.60
2023-02-12T01:18:47.350Z,75.20
2023-02-12T01:21:21.825Z,76.00
2023-02-12T01:23:50.686Z,75.10
2023-02-12T01:26:21.463Z,74.40
2023-02-12T01:28:53.500Z,67.60
2023-02-12T01:31:24.361Z,78.90
2023-02-12T01:33:54.992Z,74.80
2023-02-12T01:36:27.297Z,74.60
2023-02-12T01:38:56.787Z,76.00
2023-02-12T01:41:32.617Z,74.90
2023-02-12T01:44:13.475Z,68.10
2023-02-12T01:46:43.746Z,69.00
2023-02-12T01:49:29.707Z,72.50
2023-02-12T01:52:27.500Z,69.70
2023-02-12T01:54:59.303Z,64.50
2023-02-12T01:57:31.081Z,65.00
2023-02-12T02:00:01.779Z,67.20
2023-02-12T02:02:32.272Z,66.80
2023-02-12T02:05:03.679Z,68.60
2023-02-12T02:07:32.995Z,67.30
2023-02-12T02:10:02.143Z,65.10
2023-02-12T02:12:49.936Z,65.60
2023-02-12T02:15:18.323Z,62.70
2023-02-12T02:17:53.234Z,62.20
2023-02-12T02:20:39.967Z,61.10
2023-02-12T02:23:16.992Z,71.00
2023-02-12T02:26:20.820Z,64.70
2023-02-12T02:28:58.231Z,65.30
2023-02-12T02:31:44.102Z,62.50
2023-02-12T02:34:19.425Z,57.60
2023-02-12T02:37:03.753Z,55.20
2023-02-12T02:39:42.165Z,60.40
2023-02-12T02:42:23.736Z,64.40
2023-02-12T02:45:04.305Z,60.60
2023-02-12T02:47:37.870Z,59.50
2023-02-12T02:50:10.976Z,57.70
2023-02-12T02:52:52.521Z,61.70
2023-02-12T02:55:25.382Z,61.00
2023-02-12T02:58:25.834Z,62.30
2023-02-12T03:00:59.325Z,66.50
2023-02-12T03:03:34.398Z,60.20
2023-02-12T03:06:29.732Z,59.00
2023-02-12T03:09:05.425Z,59.40
2023-02-12T03:11:34.586Z,68.40
2023-02-12T03:14:25.989Z,70.40
2023-02-12T03:17:10.042Z,66.20
2023-02-12T03:19:51.608Z,64.30
2023-02-12T03:22:31.585Z,63.70
2023-02-12T03:25:21.550Z,66.80
2023-02-12T03:28:09.823Z,66.30
2023-02-12T03:31:02.850Z,63.00
2023-02-12T03:33:59.083Z,61.40
2023-02-12T03:36:31.719Z,63.20
2023-02-12T03:39:09.029Z,66.10
2023-02-12T03:41:48.131Z,67.00
2023-02-12T03:44:56.696Z,59.90
2023-02-12T03:47:38.956Z,60.30
2023-02-12T03:50:11.010Z,65.60
2023-02-12T03:52:39.323Z,64.40
2023-02-12T03:55:08.434Z,64.30
2023-02-12T03:57:45.223Z,67.70
2023-02-12T04:00:19.294Z,63.50
2023-02-12T04:02:49.018Z,63.10
2023-02-12T04:05:28.450Z,67.10
2023-02-12T04:07:58.868Z,71.30
2023-02-12T04:11:07.991Z,69.20
2023-02-12T04:14:19.499Z,69.10
2023-02-12T04:17:08.921Z,64.20
2023-02-12T04:20:05.489Z,67.10
2023-02-12T04:22:58.332Z,64.50
2023-02-12T04:25:48.606Z,63.60
2023-02-12T04:28:39.245Z,65.30
2023-02-12T04:31:24.263Z,64.50
2023-02-12T04:34:13.986Z,68.00
2023-02-12T04:36:52.890Z,62.80
2023-02-12T04:39:25.855Z,54.70
2023-02-12T04:41:54.048Z,65.50
2023-02-12T04:44:24.683Z,68.30
2023-02-12T04:46:53.179Z,70.00
2023-02-12T04:49:23.197Z,66.60
2023-02-12T04:51:51.634Z,60.50
2023-02-12T04:54:21.974Z,60.70
2023-02-12T04:56:50.873Z,67.20
2023-02-12T04:59:18.966Z,67.70
2023-02-12T05:01:47.111Z,71.80
2023-02-12T05:04:16.892Z,71.60
2023-02-12T05:06:46.645Z,74.10
2023-02-12T05:09:20.713Z,69.60
2023-02-12T05:11:48.879Z,69.00
2023-02-12T05:14:18.300Z,72.30
2023-02-12T05:16:46.309Z,61.10
2023-02-12T05:19:14.288Z,64.40
2023-02-12T05:21:42.348Z,65.30
2023-02-12T05:24:10.696Z,69.80
2023-02-12T05:26:39.958Z,60.20
2023-02-12T05:29:08.217Z,67.60
2023-02-12T05:31:36.318Z,69.10
2023-02-12T05:34:04.509Z,73.50
2023-02-12T05:36:33.097Z,71.30
2023-02-12T05:39:01.038Z,69.80
2023-02-12T05:41:29.521Z,69.80
2023-02-12T05:43:57.563Z,73.30
2023-02-12T05:46:25.532Z,70.30
2023-02-12T05:48:53.969Z,80.20
2023-02-12T05:51:25.153Z,73.20
2023-02-12T05:53:58.992Z,76.60
2023-02-12T05:56:33.328Z,74.30
2023-02-12T05:59:08.936Z,70.60
2023-02-12T06:01:41.896Z,78.00
2023-02-12T06:04:18.974Z,80.00
2023-02-12T06:06:48.493Z,88.10
2023-02-12T06:09:16.713Z,91.10
2023-02-12T06:11:44.924Z,89.70
2023-02-12T06:14:15.801Z,92.40
2023-02-12T06:16:48.243Z,98.50
2023-02-12T06:19:16.871Z,91.70
2023-02-12T06:21:46.340Z,84.00
2023-02-12T06:24:16.452Z,99.10
2023-02-12T06:26:50.324Z,86.80
2023-02-12T06:29:20.691Z,101.40
2023-02-12T06:31:49.340Z,102.60
2023-02-12T06:34:18.466Z,97.30
2023-02-12T06:36:47.829Z,99.00
2023-02-12T06:39:17.536Z,107.10
2023-02-12T06:41:45.751Z,100.40
2023-02-12T06:44:13.772Z,85.60
2023-02-12T06:46:42.549Z,97.70
2023-02-12T06:49:14.329Z,98.00
2023-02-12T06:51:42.741Z,89.10
2023-02-12T06:54:16.863Z,97.70
2023-02-12T06:56:45.386Z,88.50
2023-02-12T06:59:16.363Z,99.10
2023-02-12T07:01:46.628Z,88.10
2023-02-12T07:04:14.901Z,98.60
2023-02-12T07:06:42.980Z,89.00
2023-02-12T07:09:10.968Z,91.90
2023-02-12T07:11:39.961Z,102.00
2023-02-12T07:14:07.914Z,98.30
2023-02-12T07:16:36.003Z,93.30
2023-02-12T07:19:04.780Z,102.70
2023-02-12T07:21:33.208Z,91.70
2023-02-12T07:24:01.252Z,93.00
2023-02-12T07:26:29.337Z,103.40
2023-02-12T07:28:58.850Z,97.60
2023-02-12T07:31:27.123Z,88.20
2023-02-12T07:33:57.368Z,99.40
2023-02-12T07:36:28.189Z,100.40
2023-02-12T07:38:57.309Z,96.50
2023-02-12T07:41:30.743Z,100.20
2023-02-12T07:44:16.757Z,91.00
2023-02-12T07:46:48.611Z,96.90
2023-02-12T07:49:19.667Z,93.70
2023-02-12T07:51:49.372Z,96.60
2023-02-12T07:54:17.352Z,110.40
2023-02-12T07:56:47.199Z,94.30
2023-02-12T07:59:18.198Z,108.70
2023-02-12T08:01:52.926Z,106.30
2023-02-12T08:04:24.038Z,110.30
2023-02-12T08:06:54.575Z,96.20
2023-02-12T08:09:25.965Z,107.10
2023-02-12T08:11:55.820Z,97.20
2023-02-12T08:14:24.092Z,101.40
2023-02-12T08:16:53.091Z,102.90
2023-02-12T08:19:25.790Z,100.10
2023-02-12T08:21:56.885Z,107.10
2023-02-12T08:24:25.887Z,100.10
2023-02-12T08:26:55.344Z,102.40
2023-02-12T08:29:27.735Z,105.50
2023-02-12T08:31:59.500Z,97.20
2023-02-12T08:34:31.160Z,100.50
2023-02-12T08:36:59.758Z,95.90
2023-02-12T08:39:29.453Z,95.80
2023-02-12T08:41:59.242Z,85.70
2023-02-12T08:44:27.526Z,120.00
2023-02-12T08:46:58.433Z,96.20
2023-02-12T08:49:29.411Z,93.10
2023-02-12T08:51:58.982Z,83.10
2023-02-12T08:54:29.449Z,84.60
2023-02-12T08:57:01.696Z,76.20
2023-02-12T08:59:30.358Z,80.90
2023-02-12T09:01:59.720Z,87.00
2023-02-12T09:04:29.009Z,81.10
2023-02-12T09:06:57.398Z,76.10
2023-02-12T09:09:25.449Z,85.40
2023-02-12T09:11:53.507Z,81.30
2023-02-12T09:14:24.417Z,91.60
2023-02-12T09:16:55.160Z,98.50
2023-02-12T09:19:23.805Z,90.40
2023-02-12T09:21:55.798Z,85.60
2023-02-12T09:24:27.877Z,91.00
2023-02-12T09:26:56.961Z,91.80
2023-02-12T09:29:25.517Z,88.30
2023-02-12T09:31:53.748Z,95.00
2023-02-12T09:34:21.920Z,90.30
2023-02-12T09:36:49.968Z,92.80
2023-02-12T09:39:17.897Z,79.00
2023-02-12T09:41:54.556Z,79.60
2023-02-12T09:44:48.242Z,77.20
2023-02-12T09:47:36.394Z,72.10
2023-02-12T09:50:13.954Z,70.10
2023-02-12T09:52:41.959Z,78.80
2023-02-12T09:55:19.922Z,77.50
2023-02-12T09:57:48.470Z,76.40
2023-02-12T10:00:23.668Z,64.00
2023-02-12T10:02:53.946Z,70.40
2023-02-12T10:05:32.378Z,77.70
2023-02-12T10:08:06.312Z,74.20
2023-02-12T10:11:10.300Z,72.70
2023-02-12T10:13:41.270Z,73.30
2023-02-12T10:16:38.457Z,224.50
2023-02-12T10:19:24.147Z,76.40
2023-02-12T10:22:11.207Z,55.90
2023-02-12T10:24:59.974Z,55.30
2023-02-12T10:27:43.306Z,53.20
2023-02-12T10:30:59.105Z,56.50
2023-02-12T10:33:32.618Z,61.60
2023-02-12T10:36:16.313Z,55.00
2023-02-12T10:38:50.699Z,52.70
2023-02-12T10:41:19.066Z,63.00
2023-02-12T10:43:47.190Z,58.80
2023-02-12T10:46:16.682Z,53.80
2023-02-12T10:48:48.776Z,57.70
2023-02-12T10:51:46.524Z,55.80
2023-02-12T10:54:41.234Z,56.50
2023-02-12T10:57:21.351Z,50.50
2023-02-12T10:59:53.249Z,59.50
2023-02-12T11:02:26.060Z,56.00
2023-02-12T11:04:56.048Z,55.10
2023-02-12T11:07:26.346Z,48.00
2023-02-12T11:09:56.840Z,59.80
2023-02-12T11:12:38.668Z,53.50
2023-02-12T11:15:15.753Z,51.40
2023-02-12T11:17:46.330Z,55.40
2023-02-12T11:20:20.898Z,52.10
2023-02-12T11:23:00.302Z,49.20
2023-02-12T11:25:31.432Z,48.90
2023-02-12T11:28:13.897Z,53.60
2023-02-12T11:31:20.406Z,55.20
2023-02-12T11:34:06.367Z,50.60
2023-02-12T11:36:39.110Z,46.60
2023-02-12T11:39:21.406Z,50.30
2023-02-12T11:41:56.229Z,42.70
2023-02-12T11:44:30.500Z,48.60
2023-02-12T11:47:09.642Z,47.90
2023-02-12T11:49:56.692Z,38.90
2023-02-12T11:52:29.498Z,49.30
2023-02-12T11:55:01.453Z,44.20
2023-02-12T11:57:46.553Z,49.70
2023-02-12T12:00:18.303Z,47.00
2023-02-12T12:03:02.684Z,47.90
2023-02-12T12:05:38.395Z,47.30
2023-02-12T12:08:36.185Z,47.20
2023-02-12T12:11:13.324Z,51.50
2023-02-12T12:13:56.432Z,47.60
2023-02-12T12:17:13.476Z,49.70
2023-02-12T12:19:57.188Z,52.60
2023-02-12T12:22:35.933Z,48.60
2023-02-12T12:25:27.300Z,50.00
2023-02-12T12:28:29.156Z,51.90
2023-02-12T12:31:15.400Z,52.60
2023-02-12T12:34:06.817Z,55.00
2023-02-12T12:37:07.979Z,46.90
2023-02-12T12:40:04.951Z,51.00
2023-02-12T12:42:59.170Z,45.10
2023-02-12T12:45:55.116Z,54.10
2023-02-12T12:48:56.257Z,52.70
2023-02-12T12:51:36.452Z,48.00
2023-02-12T12:54:58.767Z,41.80
2023-02-12T12:57:54.982Z,52.10
2023-02-12T13:03:12.923Z,52.80
2023-02-12T13:05:59.358Z,52.30
2023-02-12T13:08:40.548Z,56.70
2023-02-12T13:11:08.452Z,45.70
2023-02-12T13:13:41.914Z,54.30
2023-02-12T13:16:42.425Z,54.20
2023-02-12T13:19:37.259Z,51.00
2023-02-12T13:22:09.285Z,41.30
2023-02-12T13:24:43.064Z,50.00
2023-02-12T13:27:22.809Z,49.80
2023-02-12T13:29:55.293Z,45.60
2023-02-12T13:32:40.654Z,40.10
2023-02-12T13:35:18.294Z,42.30
2023-02-12T13:37:58.634Z,45.90
2023-02-12T13:40:30.054Z,48.00
2023-02-12T13:43:13.918Z,41.70
2023-02-12T13:45:46.995Z,46.80
2023-02-12T13:48:46.102Z,50.60
2023-02-12T13:51:42.052Z,49.60
2023-02-12T13:54:26.212Z,39.50
2023-02-12T13:57:02.940Z,47.40
2023-02-12T13:59:39.977Z,42.20
2023-02-12T14:02:39.006Z,44.10
2023-02-12T14:05:31.464Z,44.90
2023-02-12T14:08:05.292Z,42.00
2023-02-12T14:10:39.953Z,46.00
2023-02-12T14:13:16.416Z,47.20
2023-02-12T14:15:54.362Z,43.80
2023-02-12T14:18:30.608Z,48.10
2023-02-12T14:21:19.436Z,44.50
2023-02-12T14:23:47.668Z,45.20
2023-02-12T14:26:22.326Z,43.40
2023-02-12T14:29:13.187Z,38.50
2023-02-12T14:31:43.092Z,50.30
2023-02-12T14:34:11.528Z,45.00
2023-02-12T14:36:44.190Z,38.70
2023-02-12T14:39:24.369Z,42.00
2023-02-12T14:42:13.337Z,45.20
2023-02-12T14:44:49.169Z,44.10
2023-02-12T14:47:29.337Z,44.90
2023-02-12T14:50:07.253Z,44.00
2023-02-12T14:52:41.327Z,47.50
2023-02-12T14:55:26.122Z,43.10
2023-02-12T14:58:01.305Z,44.10
2023-02-12T15:00:41.491Z,42.80
2023-02-12T15:03:12.893Z,43.90
2023-02-12T15:05:56.577Z,43.10
2023-02-12T15:08:50.876Z,44.90
2023-02-12T15:11:33.285Z,44.00
2023-02-12T15:14:22.524Z,45.10
2023-02-12T15:17:19.146Z,51.00
2023-02-12T15:19:53.156Z,44.80
2023-02-12T15:22:35.806Z,43.30
2023-02-12T15:25:27.535Z,48.40
2023-02-12T15:28:01.997Z,50.30
2023-02-12T15:30:35.662Z,54.10
2023-02-12T15:33:07.079Z,50.80
2023-02-12T15:35:45.905Z,50.40
2023-02-12T15:38:36.882Z,49.30
2023-02-12T15:41:06.614Z,53.90
2023-02-12T15:43:40.970Z,51.90
2023-02-12T15:46:18.307Z,57.80
2023-02-12T15:48:47.131Z,60.50
2023-02-12T15:51:39.795Z,52.50
2023-02-12T15:54:20.308Z,59.10
2023-02-12T15:56:52.743Z,54.80
2023-02-12T15:59:24.276Z,54.00
2023-02-12T16:02:01.192Z,53.10
2023-02-12T16:04:37.395Z,56.40
2023-02-12T16:07:08.367Z,52.20
2023-02-12T16:09:37.160Z,53.00
2023-02-12T16:12:12.364Z,51.90
2023-02-12T16:17:23.245Z,55.40
2023-02-12T16:20:05.103Z,59.90
2023-02-12T16:22:40.168Z,54.00
2023-02-12T16:28:05.951Z,55.40
2023-02-12T16:30:42.814Z,54.70
2023-02-12T16:33:45.501Z,57.50
2023-02-12T16:36:20.755Z,56.40
2023-02-12T16:38:55.391Z,61.60
2023-02-12T16:41:27.338Z,56.80
2023-02-12T16:44:01.643Z,59.20
2023-02-12T16:46:33.104Z,50.90
2023-02-12T16:49:03.182Z,55.00
2023-02-12T16:51:33.826Z,62.00
2023-02-12T16:54:04.665Z,62.00
2023-02-12T16:56:40.748Z,53.10
2023-02-12T16:59:09.652Z,55.40
2023-02-12T17:01:37.738Z,60.20
2023-02-12T17:04:08.873Z,52.20
2023-02-12T17:06:36.884Z,58.80
2023-02-12T17:09:04.939Z,57.70
2023-02-12T17:11:33.055Z,58.40
2023-02-12T17:14:01.198Z,65.50
2023-02-12T17:16:31.511Z,61.20
2023-02-12T17:19:00.824Z,61.60
2023-02-12T17:21:37.892Z,65.40
2023-02-12T17:24:21.309Z,62.80
2023-02-12T17:26:51.269Z,60.80
2023-02-12T17:29:21.761Z,66.40
2023-02-12T17:31:51.865Z,60.30
2023-02-12T17:34:20.516Z,69.40
2023-02-12T17:36:48.747Z,66.00
2023-02-12T17:39:17.849Z,70.60
2023-02-12T17:41:46.943Z,68.40
2023-02-12T17:44:16.586Z,69.70
2023-02-12T17:46:45.922Z,69.00
2023-02-12T17:49:14.027Z,68.20
2023-02-12T17:51:43.612Z,70.80
2023-02-12T17:54:12.395Z,75.60
2023-02-12T17:56:40.507Z,74.80
2023-02-12T17:59:09.955Z,70.90
2023-02-12T18:01:39.818Z,75.20
2023-02-12T18:04:08.080Z,69.00
2023-02-12T18:06:36.188Z,60.70
2023-02-12T18:09:04.688Z,77.60
2023-02-12T18:11:33.465Z,80.30
2023-02-12T18:14:02.342Z,78.30
2023-02-12T18:16:32.797Z,66.80
2023-02-12T18:19:04.547Z,69.50
2023-02-12T18:21:35.240Z,70.30
2023-02-12T18:24:03.963Z,73.60
2023-02-12T18:26:32.824Z,68.90
2023-02-12T18:29:01.221Z,70.10
2023-02-12T18:31:29.980Z,70.20
2023-02-12T18:33:59.499Z,67.50
2023-02-12T18:36:27.632Z,69.30
2023-02-12T18:38:55.729Z,70.30
2023-02-12T18:41:26.578Z,78.00
2023-02-12T18:43:56.684Z,74.80
2023-02-12T18:46:30.066Z,65.70
2023-02-12T18:48:59.954Z,71.80
2023-02-12T18:51:32.107Z,76.70
2023-02-12T18:54:05.336Z,68.80
2023-02-12T18:56:36.882Z,71.40
2023-02-12T18:59:06.036Z,69.60
2023-02-12T19:01:36.177Z,67.20
2023-02-12T19:04:07.421Z,73.90
2023-02-12T19:06:57.727Z,74.60
2023-02-12T19:09:27.037Z,67.80
2023-02-12T19:11:57.696Z,71.00
2023-02-12T19:14:27.974Z,73.20
2023-02-12T19:16:55.933Z,76.40
2023-02-12T19:19:24.972Z,82.60
2023-02-12T19:21:53.030Z,79.90
2023-02-12T19:24:21.258Z,78.30
2023-02-12T19:26:52.301Z,76.40
2023-02-12T19:29:20.674Z,70.10
2023-02-12T19:31:49.422Z,74.20
2023-02-12T19:34:20.268Z,73.70
2023-02-12T19:36:49.913Z,72.60
2023-02-12T19:39:21.668Z,79.00
2023-02-12T19:41:51.219Z,73.90
2023-02-12T19:44:22.764Z,71.60
2023-02-12T19:46:51.667Z,69.80
2023-02-12T19:49:22.747Z,77.40
2023-02-12T19:51:51.092Z,74.20
2023-02-12T19:54:22.467Z,73.50
2023-02-12T19:56:52.951Z,77.40
2023-02-12T19:59:23.991Z,74.00
2023-02-12T20:01:53.254Z,66.80
2023-02-12T20:04:23.048Z,79.30
2023-02-12T20:06:51.331Z,73.50
2023-02-12T20:09:22.443Z,71.50
2023-02-12T20:11:51.300Z,77.00
2023-02-12T20:14:21.131Z,79.00
2023-02-12T20:16:53.796Z,79.80
2023-02-12T20:19:25.864Z,70.60
2023-02-12T20:21:55.919Z,80.80
2023-02-12T20:24:26.425Z,94.20
2023-02-12T20:26:56.643Z,95.10
2023-02-12T20:29:25.470Z,94.60
2023-02-12T20:31:54.378Z,96.50
2023-02-12T20:34:22.760Z,83.10
2023-02-12T20:36:52.638Z,77.70
2023-02-12T20:39:21.333Z,78.20
2023-02-12T20:41:50.659Z,73.20
2023-02-12T20:44:24.026Z,70.00
2023-02-12T20:46:56.483Z,76.10
2023-02-12T20:49:28.355Z,69.50
2023-02-12T20:51:57.250Z,73.40
2023-02-12T20:54:26.046Z,81.20
2023-02-12T20:56:54.335Z,77.10
2023-02-12T20:59:22.495Z,81.80
2023-02-12T21:01:50.725Z,81.80
2023-02-12T21:04:20.481Z,84.30
2023-02-12T21:06:48.956Z,86.90
2023-02-12T21:09:19.134Z,84.50
2023-02-12T21:11:47.952Z,87.40
2023-02-12T21:14:24.797Z,72.10
2023-02-12T21:16:55.189Z,79.20
2023-02-12T21:19:24.661Z,81.20
2023-02-12T21:21:53.141Z,84.90
2023-02-12T21:24:25.894Z,88.90
2023-02-12T21:26:56.480Z,99.20
2023-02-12T21:29:27.571Z,102.70
2023-02-12T21:31:55.923Z,113.10
2023-02-12T21:34:24.384Z,114.80
2023-02-12T21:36:54.765Z,118.30
2023-02-12T21:39:27.353Z,117.00
2023-02-12T21:42:02.885Z,103.40
2023-02-12T21:44:35.648Z,119.90
2023-02-12T21:47:04.664Z,75.60
2023-02-12T21:49:33.096Z,108.00
2023-02-12T21:52:04.650Z,110.20
2023-02-12T21:54:33.647Z,100.20
2023-02-12T21:57:02.523Z,104.60
2023-02-12T21:59:32.344Z,109.80
2023-02-12T22:02:01.950Z,105.60
2023-02-12T22:04:32.378Z,103.80
2023-02-12T22:07:03.293Z,96.30
2023-02-12T22:09:32.118Z,101.40
2023-02-12T22:12:00.238Z,95.00
2023-02-12T22:14:28.267Z,96.30
2023-02-12T22:16:56.347Z,99.30
2023-02-12T22:19:24.621Z,90.00
2023-02-12T22:21:53.802Z,100.40
2023-02-12T22:24:22.194Z,101.50
2023-02-12T22:26:50.306Z,106.50
2023-02-12T22:29:18.488Z,96.20
2023-02-12T22:31:47.138Z,97.20
2023-02-12T22:34:19.158Z,87.70
2023-02-12T22:36:48.695Z,92.80
2023-02-12T22:39:17.759Z,87.90
2023-02-12T22:41:46.618Z,100.70
2023-02-12T22:44:16.379Z,90.40
2023-02-12T22:46:44.784Z,94.60
2023-02-12T22:49:12.828Z,89.80
2023-02-12T22:51:41.354Z,96.00
2023-02-12T22:54:15.466Z,89.70
2023-02-12T22:56:44.188Z,92.80
2023-02-12T22:59:12.735Z,93.90
2023-02-12T23:01:43.468Z,95.90
2023-02-12T23:04:19.061Z,91.40
2023-02-12T23:06:47.300Z,71.80
2023-02-12T23:09:19.108Z,89.40
2023-02-12T23:11:48.068Z,89.10
2023-02-12T23:14:16.180Z,74.00
2023-02-12T23:16:44.188Z,80.40
2023-02-12T23:19:12.853Z,78.90
2023-02-12T23:21:40.850Z,79.40
2023-02-12T23:24:13.970Z,76.10
2023-02-12T23:26:42.097Z,83.70
2023-02-12T23:29:10.148Z,80.40
2023-02-12T23:31:38.903Z,72.20
2023-02-12T23:34:07.044Z,68.00
2023-02-12T23:36:35.589Z,64.30
2023-02-12T23:39:05.864Z,57.60
2023-02-12T23:41:34.366Z,64.00
2023-02-12T23:44:02.573Z,72.90
2023-02-12T23:46:30.899Z,61.30
2023-02-12T23:48:59.061Z,69.30
2023-02-12T23:51:27.034Z,69.30
2023-02-12T23:53:55.031Z,67.10
2023-02-12T23:56:23.666Z,60.40
2023-02-12T23:58:51.620Z,59.00
